createdAt,value
2018-11-20T00:01:57.178Z,90.70
2018-11-20T00:04:54.546Z,90.70
2018-11-20T00:07:37.132Z,90.80
2018-11-20T00:10:24.932Z,90.60
2018-11-20T00:13:00.410Z,90.50
2018-11-20T00:15:47.416Z,90.40
2018-11-20T00:18:26.737Z,90.50
2018-11-20T00:21:09.763Z,90.60
2018-11-20T00:23:55.616Z,90.50
2018-11-20T00:26:42.362Z,90.60
2018-11-20T00:29:42.680Z,90.80
2018-11-20T00:32:45.640Z,90.90
2018-11-20T00:35:36.878Z,90.70
2018-11-20T00:38:25.068Z,90.50
2018-11-20T00:41:08.272Z,90.90
2018-11-20T00:44:02.674Z,90.60
2018-11-20T00:46:49.514Z,91.00
2018-11-20T00:49:36.749Z,91.10
2018-11-20T00:52:23.265Z,90.90
2018-11-20T00:55:14.394Z,90.80
2018-11-20T00:58:14.679Z,91.10
2018-11-20T01:01:11.978Z,90.60
2018-11-20T01:03:49.160Z,90.50
2018-11-20T01:06:43.273Z,90.30
2018-11-20T01:09:40.474Z,90.50
2018-11-20T01:12:21.479Z,90.30
2018-11-20T01:15:24.385Z,90.70
2018-11-20T01:18:11.049Z,90.60
2018-11-20T01:21:04.924Z,90.60
2018-11-20T01:23:52.522Z,90.30
2018-11-20T01:26:33.516Z,90.50
2018-11-20T01:29:20.521Z,90.60
2018-11-20T01:32:08.329Z,90.90
2018-11-20T01:35:03.078Z,90.50
2018-11-20T01:37:57.314Z,90.60
2018-11-20T01:40:53.054Z,90.80
2018-11-20T01:43:45.759Z,90.70
2018-11-20T01:46:42.983Z,90.80
2018-11-20T01:49:31.198Z,91.30
2018-11-20T01:52:22.792Z,91.10
2018-11-20T01:55:06.818Z,91.30
2018-11-20T01:57:50.282Z,91.00
2018-11-20T02:00:38.433Z,91.10
2018-11-20T02:03:32.626Z,90.70
2018-11-20T02:06:12.696Z,90.60
2018-11-20T02:09:00.867Z,90.70
2018-11-20T02:11:47.679Z,90.70
2018-11-20T02:14:40.980Z,90.80
2018-11-20T02:17:31.498Z,90.80
2018-11-20T02:20:37.806Z,90.70
2018-11-20T02:23:20.316Z,91.00
2018-11-20T02:26:14.338Z,91.20
2018-11-20T02:29:01.077Z,91.20
2018-11-20T02:31:55.792Z,91.20
2018-11-20T02:34:53.395Z,91.00
2018-11-20T02:37:44.796Z,90.90
2018-11-20T02:40:35.724Z,91.00
2018-11-20T02:43:22.280Z,91.10
2018-11-20T02:46:09.062Z,90.90
2018-11-20T02:48:55.927Z,91.00
2018-11-20T02:51:59.149Z,91.00
2018-11-20T02:54:45.963Z,90.90
2018-11-20T02:57:33.394Z,90.80
2018-11-20T03:00:28.061Z,91.00
2018-11-20T03:03:14.546Z,91.00
2018-11-20T03:06:10.631Z,91.00
2018-11-20T03:08:56.350Z,91.10
2018-11-20T03:11:35.558Z,91.10
2018-11-20T03:14:30.172Z,91.20
2018-11-20T03:17:17.448Z,91.40
2018-11-20T03:20:05.585Z,91.20
2018-11-20T03:22:44.822Z,91.50
2018-11-20T03:26:01.430Z,91.40
2018-11-20T03:28:46.304Z,91.30
2018-11-20T03:31:40.620Z,91.00
2018-11-20T03:34:44.163Z,90.90
2018-11-20T03:37:30.797Z,91.00
2018-11-20T03:40:17.969Z,90.80
2018-11-20T03:42:56.624Z,90.70
2018-11-20T03:45:48.659Z,90.60
2018-11-20T03:48:39.742Z,90.60
2018-11-20T03:51:24.952Z,90.50
2018-11-20T03:54:11.808Z,90.50
2018-11-20T03:57:09.082Z,90.40
2018-11-20T04:00:09.315Z,90.50
2018-11-20T04:02:46.109Z,90.50
2018-11-20T04:05:32.779Z,90.50
2018-11-20T04:08:19.552Z,90.50
2018-11-20T04:11:06.362Z,91.40
2018-11-20T04:13:53.123Z,90.80
2018-11-20T04:16:56.335Z,90.70
2018-11-20T04:19:41.718Z,90.80
2018-11-20T04:22:44.974Z,90.50
2018-11-20T04:25:25.102Z,90.50
2018-11-20T04:28:05.230Z,90.60
2018-11-20T04:31:46.126Z,90.70
2018-11-20T04:34:25.191Z,90.30
2018-11-20T04:37:16.659Z,90.70
2018-11-20T04:40:16.851Z,90.70
2018-11-20T04:43:02.828Z,90.50
2018-11-20T04:45:49.505Z,90.70
2018-11-20T04:48:36.340Z,90.70
2018-11-20T04:51:23.088Z,90.50
2018-11-20T04:54:20.199Z,90.60
2018-11-20T04:57:02.230Z,90.70
2018-11-20T04:59:50.295Z,90.90
2018-11-20T05:02:27.506Z,90.90
2018-11-20T05:05:15.166Z,90.50
2018-11-20T05:08:01.925Z,90.40
2018-11-20T05:10:44.678Z,90.50
2018-11-20T05:13:38.683Z,90.50
2018-11-20T05:16:35.629Z,90.30
2018-11-20T05:19:23.394Z,90.20
2018-11-20T05:22:10.039Z,90.10
2018-11-20T05:25:14.119Z,90.10
2018-11-20T05:28:01.515Z,90.20
2018-11-20T05:30:52.757Z,90.20
2018-11-20T05:33:46.677Z,90.20
2018-11-20T05:36:24.959Z,90.00
2018-11-20T05:39:14.067Z,90.00
2018-11-20T05:42:00.702Z,90.00
2018-11-20T05:45:07.005Z,90.20
2018-11-20T05:48:03.693Z,90.30
2018-11-20T05:50:50.825Z,90.20
2018-11-20T05:53:39.044Z,90.10
2018-11-20T05:56:20.759Z,90.30
2018-11-20T05:59:23.698Z,90.20
2018-11-20T06:02:17.745Z,90.00
2018-11-20T06:05:09.393Z,90.20
2018-11-20T06:07:48.612Z,90.10
2018-11-20T06:10:29.846Z,90.00
2018-11-20T06:13:15.375Z,90.00
2018-11-20T06:16:11.062Z,89.60
2018-11-20T06:18:57.856Z,89.90
2018-11-20T06:21:54.845Z,90.10
2018-11-20T06:24:45.698Z,90.00
2018-11-20T06:27:32.428Z,90.10
2018-11-20T06:30:19.174Z,90.10
2018-11-20T06:33:06.349Z,89.90
2018-11-20T06:35:54.553Z,90.10
2018-11-20T06:38:41.343Z,90.00
2018-11-20T06:41:29.530Z,90.40
2018-11-20T06:44:26.789Z,90.00
2018-11-20T06:47:15.045Z,90.50
2018-11-20T06:50:03.509Z,90.00
2018-11-20T06:52:52.909Z,90.00
2018-11-20T06:55:47.929Z,90.00
2018-11-20T06:58:34.625Z,88.90
2018-11-20T07:01:34.363Z,89.50
2018-11-20T07:04:19.491Z,89.30
2018-11-20T07:07:03.830Z,88.70
2018-11-20T07:09:50.839Z,88.10
2018-11-20T07:12:49.962Z,87.80
2018-11-20T07:15:37.154Z,88.40
2018-11-20T07:18:31.133Z,88.50
2018-11-20T07:21:16.943Z,88.20
2018-11-20T07:24:03.933Z,87.50
2018-11-20T07:26:58.090Z,87.80
2018-11-20T07:29:44.578Z,87.60
2018-11-20T07:32:31.324Z,88.30
2018-11-20T07:35:28.507Z,88.20
2018-11-20T07:38:15.590Z,88.60
2018-11-20T07:41:06.711Z,87.40
2018-11-20T07:43:55.256Z,87.10
2018-11-20T07:46:50.028Z,86.60
2018-11-20T07:49:36.604Z,86.30
2018-11-20T07:52:22.258Z,86.40
2018-11-20T07:55:09.055Z,86.00
2018-11-20T07:57:53.797Z,86.40
2018-11-20T08:00:41.571Z,86.00
2018-11-20T08:03:28.147Z,86.10
2018-11-20T08:06:12.220Z,86.20
2018-11-20T08:08:48.480Z,87.00
2018-11-20T08:11:35.125Z,86.50
2018-11-20T08:14:09.675Z,86.10
2018-11-20T08:16:56.375Z,86.60
2018-11-20T08:19:50.100Z,86.30
2018-11-20T08:22:33.255Z,85.90
2018-11-20T08:25:23.827Z,85.60
2018-11-20T08:28:10.568Z,85.50
2018-11-20T08:30:57.226Z,85.30
2018-11-20T08:33:44.012Z,85.50
2018-11-20T08:36:47.343Z,85.90
2018-11-20T08:39:33.660Z,85.60
2018-11-20T08:42:27.542Z,85.70
2018-11-20T08:45:14.334Z,84.90
2018-11-20T08:48:11.385Z,85.20
2018-11-20T08:50:58.093Z,85.30
2018-11-20T08:53:42.133Z,84.40
2018-11-20T08:56:40.094Z,84.80
2018-11-20T08:59:26.063Z,84.70
2018-11-20T09:02:14.356Z,84.20
2018-11-20T09:05:07.028Z,83.90
2018-11-20T09:07:53.525Z,83.40
2018-11-20T09:10:40.125Z,82.80
2018-11-20T09:13:28.617Z,82.70
2018-11-20T09:16:09.948Z,82.40
2018-11-20T09:18:56.979Z,83.00
2018-11-20T09:21:52.521Z,82.80
2018-11-20T09:24:30.321Z,81.80
2018-11-20T09:27:13.410Z,81.90
2018-11-20T09:30:12.382Z,82.20
2018-11-20T09:32:52.524Z,82.20
2018-11-20T09:35:43.886Z,81.00
2018-11-20T09:38:24.247Z,81.00
2018-11-20T09:41:18.331Z,81.70
2018-11-20T09:44:28.763Z,81.80
2018-11-20T09:47:29.085Z,81.20
2018-11-20T09:50:16.056Z,82.10
2018-11-20T09:53:02.944Z,81.70
2018-11-20T09:55:51.155Z,81.10
2018-11-20T09:58:37.700Z,81.10
2018-11-20T10:01:29.573Z,81.40
2018-11-20T10:04:22.908Z,81.10
2018-11-20T10:07:10.068Z,80.60
2018-11-20T10:09:50.775Z,80.10
2018-11-20T10:12:36.138Z,79.70
2018-11-20T10:15:13.653Z,79.70
2018-11-20T10:18:00.536Z,80.70
2018-11-20T10:20:47.299Z,79.80
2018-11-20T10:23:34.271Z,79.50
2018-11-20T10:26:21.066Z,79.70
2018-11-20T10:29:07.578Z,79.10
2018-11-20T10:32:09.915Z,78.10
2018-11-20T10:34:45.753Z,78.40
2018-11-20T10:37:22.014Z,78.70
2018-11-20T10:40:25.429Z,79.40
2018-11-20T10:43:13.549Z,78.70
2018-11-20T10:46:08.535Z,80.10
2018-11-20T10:48:47.115Z,79.20
2018-11-20T10:51:18.463Z,78.70
2018-11-20T10:54:04.962Z,80.50
2018-11-20T10:57:11.375Z,79.40
2018-11-20T11:00:14.592Z,79.60
2018-11-20T11:03:02.388Z,80.20
2018-11-20T11:05:51.714Z,80.90
2018-11-20T11:08:39.879Z,79.70
2018-11-20T11:11:26.814Z,79.70
2018-11-20T11:14:13.374Z,80.70
2018-11-20T11:16:58.444Z,80.40
2018-11-20T11:19:58.539Z,80.40
2018-11-20T11:22:45.291Z,80.20
2018-11-20T11:25:31.732Z,80.60
2018-11-20T11:28:21.933Z,80.30
2018-11-20T11:31:10.314Z,81.80
2018-11-20T11:34:07.509Z,81.90
2018-11-20T11:36:55.131Z,81.40
2018-11-20T11:39:50.751Z,81.40
2018-11-20T11:42:37.333Z,81.70
2018-11-20T11:45:15.649Z,81.80
2018-11-20T11:48:02.642Z,82.10
2018-11-20T11:50:52.715Z,82.30
2018-11-20T11:53:34.304Z,82.30
2018-11-20T11:56:23.694Z,81.70
2018-11-20T11:59:18.611Z,81.60
2018-11-20T12:04:37.520Z,82.10
2018-11-20T12:07:29.006Z,82.40
2018-11-20T12:10:09.159Z,83.30
2018-11-20T12:13:03.573Z,82.20
2018-11-20T12:15:40.169Z,82.10
2018-11-20T12:18:31.041Z,82.10
2018-11-20T12:21:19.242Z,82.50
2018-11-20T12:24:05.029Z,82.80
2018-11-20T12:26:51.636Z,82.60
2018-11-20T12:29:42.752Z,83.80
2018-11-20T12:32:34.248Z,82.50
2018-11-20T12:35:38.562Z,82.70
2018-11-20T12:38:12.802Z,82.40
2018-11-20T12:41:12.890Z,82.40
2018-11-20T12:43:51.205Z,82.60
2018-11-20T12:46:51.287Z,82.40
2018-11-20T12:49:39.698Z,82.80
2018-11-20T12:52:26.213Z,82.90
2018-11-20T12:55:13.322Z,83.00
2018-11-20T12:57:54.077Z,83.90
2018-11-20T13:00:40.514Z,83.40
2018-11-20T13:03:34.401Z,83.80
2018-11-20T13:06:13.189Z,84.20
2018-11-20T13:09:00.922Z,84.30
2018-11-20T13:11:56.781Z,84.70
2018-11-20T13:14:57.004Z,84.40
2018-11-20T13:17:44.130Z,84.10
2018-11-20T13:20:32.058Z,84.30
2018-11-20T13:23:08.923Z,84.20
2018-11-20T13:25:52.654Z,84.30
2018-11-20T13:28:34.422Z,84.30
2018-11-20T13:31:40.950Z,84.30
2018-11-20T13:34:47.851Z,84.50
2018-11-20T13:37:35.614Z,84.50
2018-11-20T13:40:34.645Z,84.50
2018-11-20T13:43:25.429Z,84.50
2018-11-20T13:46:12.981Z,85.60
2018-11-20T13:49:01.250Z,84.80
2018-11-20T13:51:49.395Z,84.70
2018-11-20T13:54:55.703Z,84.70
2018-11-20T13:57:42.748Z,84.30
2018-11-20T14:00:26.856Z,84.70
2018-11-20T14:03:11.498Z,84.60
2018-11-20T14:06:01.983Z,84.80
2018-11-20T14:08:52.557Z,84.80
2018-11-20T14:11:36.553Z,84.60
2018-11-20T14:14:21.574Z,85.10
2018-11-20T14:17:20.624Z,85.60
2018-11-20T14:20:10.938Z,85.40
2018-11-20T14:23:10.941Z,85.60
2018-11-20T14:25:55.542Z,86.00
2018-11-20T14:28:49.608Z,85.40
2018-11-20T14:31:47.124Z,85.60
2018-11-20T14:34:34.245Z,85.30
2018-11-20T14:37:28.368Z,85.60
2018-11-20T14:40:25.343Z,86.70
2018-11-20T14:43:13.894Z,86.20
2018-11-20T14:45:59.357Z,86.60
2018-11-20T14:48:45.558Z,86.60
2018-11-20T14:51:32.113Z,86.50
2018-11-20T14:54:11.776Z,87.10
2018-11-20T14:56:56.477Z,87.70
2018-11-20T14:59:45.142Z,87.60
2018-11-20T15:02:39.236Z,87.60
2018-11-20T15:05:19.902Z,87.90
2018-11-20T15:08:23.359Z,88.10
2018-11-20T15:11:10.724Z,88.20
2018-11-20T15:13:58.200Z,88.40
2018-11-20T15:16:47.780Z,88.20
2018-11-20T15:22:42.111Z,88.80
2018-11-20T15:25:33.575Z,88.60
2018-11-20T15:28:30.860Z,88.60
2018-11-20T15:31:18.993Z,88.70
2018-11-20T15:34:07.320Z,88.70
2018-11-20T15:37:10.442Z,89.00
2018-11-20T15:40:13.684Z,89.20
2018-11-20T15:43:04.370Z,89.20
2018-11-20T15:45:55.284Z,89.70
2018-11-20T15:48:46.358Z,90.00
2018-11-20T15:51:53.983Z,89.40
2018-11-20T15:54:46.309Z,89.40
2018-11-20T15:58:37.867Z,89.30
2018-11-20T16:01:23.780Z,89.30
2018-11-20T16:04:20.962Z,89.70
2018-11-20T16:07:12.103Z,90.10
2018-11-20T16:10:01.878Z,90.00
2018-11-20T16:12:50.174Z,90.00
2018-11-20T16:15:35.910Z,90.30
2018-11-20T16:18:14.578Z,90.10
2018-11-20T16:21:07.459Z,90.10
2018-11-20T16:23:46.663Z,90.10
2018-11-20T16:26:36.359Z,90.20
2018-11-20T16:29:21.644Z,90.30
2018-11-20T16:32:03.208Z,90.40
2018-11-20T16:34:49.370Z,90.40
2018-11-20T16:37:34.749Z,90.50
2018-11-20T16:40:20.447Z,90.80
2018-11-20T16:43:13.398Z,90.70
2018-11-20T16:45:59.323Z,90.80
2018-11-20T16:48:43.942Z,90.90
2018-11-20T16:51:29.419Z,91.20
2018-11-20T16:54:16.412Z,91.10
2018-11-20T16:57:02.841Z,91.00
2018-11-20T17:00:04.821Z,91.10
2018-11-20T17:02:55.270Z,91.10
2018-11-20T17:05:52.628Z,91.30
2018-11-20T17:08:38.145Z,91.30
2018-11-20T17:11:25.179Z,91.50
2018-11-20T17:14:11.929Z,91.30
2018-11-20T17:19:57.895Z,91.30
2018-11-20T17:23:08.269Z,91.20
2018-11-20T17:25:52.631Z,91.40
2018-11-20T17:29:07.112Z,92.00
2018-11-20T17:31:52.940Z,91.90
2018-11-20T17:34:49.997Z,91.60
2018-11-20T17:37:49.546Z,91.70
2018-11-20T17:40:46.533Z,91.80
2018-11-20T17:43:25.676Z,91.70
2018-11-20T17:46:02.251Z,91.70
2018-11-20T17:48:47.898Z,91.50
2018-11-20T17:51:33.583Z,91.50
2018-11-20T17:54:23.469Z,91.60
2018-11-20T17:57:24.776Z,91.60
2018-11-20T18:00:27.127Z,92.40
2018-11-20T18:03:15.258Z,91.90
2018-11-20T18:06:01.192Z,91.90
2018-11-20T18:08:51.955Z,92.30
2018-11-20T18:11:37.273Z,91.80
2018-11-20T18:14:22.670Z,91.90
2018-11-20T18:17:24.713Z,92.00
2018-11-20T18:20:26.899Z,92.00
2018-11-20T18:23:12.201Z,92.20
2018-11-20T18:26:05.470Z,92.20
2018-11-20T18:28:51.097Z,92.30
2018-11-20T18:31:28.453Z,92.20
2018-11-20T18:34:27.203Z,92.30
2018-11-20T18:37:12.537Z,92.20
2018-11-20T18:39:58.777Z,92.30
2018-11-20T18:42:44.633Z,92.50
2018-11-20T18:45:31.170Z,92.30
2018-11-20T18:48:16.865Z,92.30
2018-11-20T18:51:06.860Z,91.90
2018-11-20T18:54:02.707Z,92.10
2018-11-20T18:56:47.976Z,92.30
2018-11-20T18:59:29.180Z,92.20
2018-11-20T19:02:05.069Z,92.20
2018-11-20T19:04:58.166Z,92.10
2018-11-20T19:07:54.316Z,92.50
2018-11-20T19:10:37.661Z,92.30
2018-11-20T19:13:26.867Z,92.10
2018-11-20T19:16:22.870Z,92.20
2018-11-20T19:19:08.682Z,92.50
2018-11-20T19:21:58.607Z,92.30
2018-11-20T19:24:44.432Z,92.50
2018-11-20T19:27:24.347Z,92.20
2018-11-20T19:30:10.128Z,92.20
2018-11-20T19:32:55.850Z,92.30
2018-11-20T19:35:41.947Z,92.40
2018-11-20T19:38:27.606Z,92.30
2018-11-20T19:41:20.590Z,92.90
2018-11-20T19:44:06.177Z,92.50
2018-11-20T19:46:56.123Z,92.40
2018-11-20T19:49:42.470Z,92.30
2018-11-20T19:52:41.313Z,92.00
2018-11-20T19:55:31.394Z,92.10
2018-11-20T19:58:18.456Z,91.90
2018-11-20T20:01:04.253Z,92.10
2018-11-20T20:03:39.138Z,91.80
2018-11-20T20:06:24.897Z,91.80
2018-11-20T20:09:17.980Z,91.80
2018-11-20T20:12:08.471Z,91.70
2018-11-20T20:14:56.364Z,92.30
2018-11-20T20:17:45.959Z,91.90
2018-11-20T20:20:34.160Z,92.00
2018-11-20T20:23:19.921Z,92.00
2018-11-20T20:26:05.533Z,92.00
2018-11-20T20:29:01.567Z,92.00
2018-11-20T20:31:46.877Z,92.00
2018-11-20T20:34:48.736Z,91.80
2018-11-20T20:37:30.588Z,92.10
2018-11-20T20:40:20.549Z,92.00
2018-11-20T20:42:56.162Z,91.80
2018-11-20T20:45:58.000Z,91.70
2018-11-20T20:48:47.733Z,91.70
2018-11-20T20:51:49.600Z,91.70
2018-11-20T20:54:49.518Z,92.00
2018-11-20T20:57:48.838Z,91.90
2018-11-20T21:00:35.056Z,91.70
2018-11-20T21:03:37.537Z,91.70
2018-11-20T21:06:44.006Z,92.20
2018-11-20T21:09:42.816Z,91.90
2018-11-20T21:12:33.836Z,91.80
2018-11-20T21:15:21.040Z,91.90
2018-11-20T21:18:11.712Z,92.00
2018-11-20T21:20:58.030Z,91.80
2018-11-20T21:24:04.669Z,91.80
2018-11-20T21:27:05.294Z,91.70
2018-11-20T21:30:06.856Z,91.60
2018-11-20T21:32:50.172Z,91.70
2018-11-20T21:35:46.997Z,91.70
2018-11-20T21:38:37.420Z,92.10
2018-11-20T21:41:23.378Z,91.90
2018-11-20T21:44:10.877Z,91.80
2018-11-20T21:47:13.034Z,91.90
2018-11-20T21:49:58.806Z,92.10
2018-11-20T21:53:01.084Z,91.90
2018-11-20T21:55:54.057Z,91.90
2018-11-20T21:58:43.978Z,91.80
2018-11-20T22:01:30.737Z,91.70
2018-11-20T22:04:19.358Z,91.80
2018-11-20T22:07:12.246Z,91.70
2018-11-20T22:09:57.608Z,91.60
2018-11-20T22:12:47.468Z,91.40
2018-11-20T22:15:32.865Z,91.50
2018-11-20T22:18:22.913Z,91.20
2018-11-20T22:21:17.663Z,91.10
2018-11-20T22:24:07.583Z,91.00
2018-11-20T22:26:51.899Z,91.10
2018-11-20T22:29:35.131Z,91.00
2018-11-20T22:32:22.396Z,91.10
2018-11-20T22:35:13.754Z,91.20
2018-11-20T22:38:09.579Z,91.10
2018-11-20T22:40:54.925Z,91.10
2018-11-20T22:43:41.020Z,91.20
2018-11-20T22:46:26.668Z,91.10
2018-11-20T22:49:06.247Z,91.10
2018-11-20T22:51:56.171Z,91.50
2018-11-20T22:54:33.687Z,91.40
2018-11-20T22:57:26.611Z,91.50
2018-11-20T23:00:11.636Z,91.60
2018-11-20T23:02:57.343Z,91.40
2018-11-20T23:05:41.647Z,91.10
2018-11-20T23:08:09.125Z,91.10
2018-11-20T23:10:39.198Z,91.00
2018-11-20T23:13:06.570Z,91.20
2018-11-20T23:15:33.953Z,91.10
2018-11-20T23:18:01.397Z,91.00
2018-11-20T23:20:28.769Z,91.10
2018-11-20T23:22:56.271Z,91.40
2018-11-20T23:25:23.680Z,91.20
2018-11-20T23:27:51.079Z,91.10
2018-11-20T23:30:18.493Z,91.10
2018-11-20T23:32:45.918Z,91.10
2018-11-20T23:35:13.435Z,91.00
2018-11-20T23:37:41.427Z,91.00
2018-11-20T23:40:10.043Z,91.10
2018-11-20T23:42:37.600Z,91.00
2018-11-20T23:45:08.383Z,91.00
2018-11-20T23:47:35.786Z,91.10
2018-11-20T23:50:04.703Z,91.00
2018-11-20T23:52:32.193Z,91.30
2018-11-20T23:54:59.852Z,91.10
2018-11-20T23:57:27.272Z,91.10
2018-11-20T23:59:54.696Z,91.20
